createdAt,value
2019-05-30T00:00:34.554Z,4.37
2019-05-30T00:03:04.441Z,5.37
2019-05-30T00:05:34.170Z,5.22
2019-05-30T00:08:04.454Z,6.47
2019-05-30T00:10:34.214Z,6.45
2019-05-30T00:13:05.018Z,4.42
2019-05-30T00:15:34.907Z,5.95
2019-05-30T00:18:04.992Z,7.83
2019-05-30T00:20:34.700Z,8.35
2019-05-30T00:23:04.458Z,4.60
2019-05-30T00:25:34.087Z,4.92
2019-05-30T00:28:05.115Z,5.12
2019-05-30T00:30:35.170Z,14.25
2019-05-30T00:33:07.031Z,6.42
2019-05-30T00:35:36.905Z,7.08
2019-05-30T00:38:06.477Z,7.47
2019-05-30T00:40:36.018Z,6.65
2019-05-30T00:43:06.298Z,8.00
2019-05-30T00:45:36.066Z,6.20
2019-05-30T00:48:06.509Z,7.90
2019-05-30T00:50:36.148Z,5.87
2019-05-30T00:53:06.936Z,8.03
2019-05-30T00:55:36.845Z,5.35
2019-05-30T00:58:07.450Z,8.50
2019-05-30T01:00:43.576Z,8.73
2019-05-30T01:03:08.976Z,7.47
2019-05-30T01:05:38.879Z,9.23
2019-05-30T01:08:08.440Z,7.90
2019-05-30T01:10:38.065Z,7.67
2019-05-30T01:13:07.679Z,7.17
2019-05-30T01:15:37.262Z,6.30
2019-05-30T01:18:07.386Z,8.90
2019-05-30T01:20:37.033Z,6.35
2019-05-30T01:23:07.761Z,7.08
2019-05-30T01:25:37.316Z,7.17
2019-05-30T01:28:07.845Z,11.08
2019-05-30T01:30:37.609Z,9.88
2019-05-30T01:33:08.086Z,5.72
2019-05-30T01:35:37.818Z,7.40
2019-05-30T01:38:08.095Z,5.50
2019-05-30T01:40:37.814Z,6.70
2019-05-30T01:43:08.352Z,6.12
2019-05-30T01:45:37.991Z,10.63
2019-05-30T01:48:08.606Z,7.00
2019-05-30T01:50:38.328Z,5.92
2019-05-30T01:53:08.847Z,7.90
2019-05-30T01:55:38.591Z,6.30
2019-05-30T01:58:09.268Z,11.15
2019-05-30T02:00:41.648Z,4.62
2019-05-30T02:03:11.337Z,8.70
2019-05-30T02:05:40.971Z,5.47
2019-05-30T02:08:10.664Z,6.80
2019-05-30T02:10:40.361Z,5.40
2019-05-30T02:13:10.555Z,5.62
2019-05-30T02:15:40.380Z,6.60
2019-05-30T02:18:10.217Z,5.50
2019-05-30T02:20:40.125Z,5.58
2019-05-30T02:23:11.593Z,5.67
2019-05-30T02:25:41.268Z,7.80
2019-05-30T02:28:10.886Z,5.40
2019-05-30T02:30:40.522Z,9.45
2019-05-30T02:33:12.644Z,6.40
2019-05-30T02:35:41.980Z,4.67
2019-05-30T02:38:11.865Z,8.25
2019-05-30T02:40:41.900Z,6.03
2019-05-30T02:43:12.409Z,5.67
2019-05-30T02:45:42.362Z,4.20
2019-05-30T02:48:12.422Z,4.37
2019-05-30T02:50:43.158Z,5.17
2019-05-30T02:53:13.302Z,4.08
2019-05-30T02:55:45.820Z,9.63
2019-05-30T02:58:15.375Z,5.12
2019-05-30T03:00:45.004Z,7.28
2019-05-30T03:03:15.032Z,6.95
2019-05-30T03:05:44.823Z,4.58
2019-05-30T03:08:14.827Z,5.87
2019-05-30T03:10:44.721Z,4.58
2019-05-30T03:13:14.410Z,5.03
2019-05-30T03:15:44.098Z,4.33
2019-05-30T03:18:14.951Z,4.62
2019-05-30T03:20:45.292Z,4.42
2019-05-30T03:23:15.142Z,6.80
2019-05-30T03:25:44.973Z,7.33
2019-05-30T03:28:15.002Z,8.83
2019-05-30T03:30:46.058Z,7.97
2019-05-30T03:33:36.668Z,6.22
2019-05-30T03:35:48.179Z,8.08
2019-05-30T03:38:17.928Z,4.55
2019-05-30T03:40:47.613Z,6.97
2019-05-30T03:43:17.322Z,11.85
2019-05-30T03:45:47.094Z,7.17
2019-05-30T03:48:18.497Z,4.97
2019-05-30T03:50:51.230Z,6.58
2019-05-30T03:53:21.486Z,6.62
2019-05-30T03:55:55.238Z,7.47
2019-05-30T03:58:44.488Z,7.10
2019-05-30T04:01:26.234Z,7.97
2019-05-30T04:04:06.481Z,6.15
2019-05-30T04:06:39.370Z,5.42
2019-05-30T04:09:14.998Z,6.03
2019-05-30T04:12:04.566Z,4.70
2019-05-30T04:14:37.210Z,5.65
2019-05-30T04:17:08.392Z,5.25
2019-05-30T04:19:37.934Z,4.33
2019-05-30T04:22:09.180Z,8.23
2019-05-30T04:24:38.661Z,7.80
2019-05-30T04:27:09.829Z,7.90
2019-05-30T04:29:39.386Z,5.30
2019-05-30T04:32:10.225Z,9.30
2019-05-30T04:34:39.984Z,8.95
2019-05-30T04:37:10.672Z,8.45
2019-05-30T04:39:40.467Z,7.05
2019-05-30T04:42:11.370Z,8.10
2019-05-30T04:44:41.177Z,6.03
2019-05-30T04:47:12.115Z,5.00
2019-05-30T04:49:41.794Z,7.47
2019-05-30T04:52:15.789Z,7.65
2019-05-30T04:54:42.581Z,7.17
2019-05-30T04:57:14.798Z,14.80
2019-05-30T04:59:44.659Z,11.15
2019-05-30T05:02:16.444Z,12.73
2019-05-30T05:04:47.642Z,8.45
2019-05-30T05:07:17.838Z,8.83
2019-05-30T05:09:47.545Z,7.83
2019-05-30T05:12:18.181Z,7.47
2019-05-30T05:14:47.938Z,8.38
2019-05-30T05:17:18.857Z,10.18
2019-05-30T05:19:48.664Z,12.00
2019-05-30T05:22:19.091Z,9.35
2019-05-30T05:24:48.680Z,9.18
2019-05-30T05:27:19.628Z,8.45
2019-05-30T05:29:49.350Z,6.50
2019-05-30T05:32:18.981Z,11.60
2019-05-30T05:34:51.825Z,7.78
2019-05-30T05:37:20.916Z,9.40
2019-05-30T05:39:50.751Z,7.27
2019-05-30T05:42:20.572Z,5.95
2019-05-30T05:44:50.120Z,7.00
2019-05-30T05:47:20.466Z,11.10
2019-05-30T05:49:50.577Z,7.58
2019-05-30T05:52:20.726Z,14.87
2019-05-30T05:54:50.390Z,10.95
2019-05-30T05:57:20.787Z,9.05
2019-05-30T05:59:50.465Z,8.90
2019-05-30T06:02:21.014Z,9.55
2019-05-30T06:04:50.740Z,7.70
2019-05-30T06:07:20.368Z,6.22
2019-05-30T06:09:49.927Z,6.95
2019-05-30T06:12:19.715Z,7.30
2019-05-30T06:14:50.002Z,10.30
2019-05-30T06:17:21.253Z,11.38
2019-05-30T06:19:52.555Z,7.50
2019-05-30T06:22:22.091Z,8.80
2019-05-30T06:24:51.645Z,7.65
2019-05-30T06:27:21.927Z,8.43
2019-05-30T06:29:51.612Z,9.03
2019-05-30T06:32:22.745Z,14.23
2019-05-30T06:34:52.507Z,8.88
2019-05-30T06:37:23.054Z,8.20
2019-05-30T06:39:52.884Z,9.40
2019-05-30T06:42:23.613Z,34.88
2019-05-30T06:44:53.387Z,7.72
2019-05-30T06:47:24.303Z,7.10
2019-05-30T06:49:54.026Z,8.40
2019-05-30T06:52:23.559Z,7.37
2019-05-30T06:54:53.117Z,9.93
2019-05-30T06:57:23.574Z,5.22
2019-05-30T06:59:53.149Z,9.35
2019-05-30T07:02:24.090Z,3.67
2019-05-30T07:04:54.351Z,4.80
2019-05-30T07:07:25.115Z,4.53
2019-05-30T07:09:54.868Z,5.50
2019-05-30T07:12:26.001Z,6.30
2019-05-30T07:14:55.669Z,4.63
2019-05-30T07:17:25.315Z,8.73
2019-05-30T07:19:54.873Z,3.50
2019-05-30T07:22:25.544Z,2.72
2019-05-30T07:24:56.218Z,2.67
2019-05-30T07:27:26.183Z,5.17
2019-05-30T07:29:55.852Z,5.15
2019-05-30T07:32:26.468Z,3.35
2019-05-30T07:35:06.011Z,5.05
2019-05-30T07:37:28.126Z,3.20
2019-05-30T07:39:57.837Z,3.10
2019-05-30T07:42:28.596Z,2.83
2019-05-30T07:44:58.416Z,7.72
2019-05-30T07:47:28.131Z,5.08
2019-05-30T07:49:57.930Z,2.92
2019-05-30T07:52:28.403Z,2.45
2019-05-30T07:54:58.173Z,3.72
2019-05-30T07:57:28.100Z,2.00
2019-05-30T07:59:57.711Z,2.62
2019-05-30T08:02:27.505Z,3.98
2019-05-30T08:04:57.318Z,2.50
2019-05-30T08:07:26.923Z,9.40
2019-05-30T08:09:56.635Z,5.20
2019-05-30T08:12:26.192Z,2.77
2019-05-30T08:14:55.736Z,4.67
2019-05-30T08:17:27.095Z,3.00
2019-05-30T08:19:57.008Z,2.10
2019-05-30T08:22:27.891Z,2.17
2019-05-30T08:24:58.064Z,1.80
2019-05-30T08:27:28.057Z,2.05
2019-05-30T08:29:57.671Z,1.20
2019-05-30T08:32:28.291Z,1.37
2019-05-30T08:34:58.140Z,4.97
2019-05-30T08:37:28.813Z,3.02
2019-05-30T08:39:58.536Z,2.98
2019-05-30T08:42:29.494Z,2.75
2019-05-30T08:44:59.328Z,2.50
2019-05-30T08:47:29.790Z,2.45
2019-05-30T08:49:59.429Z,3.33
2019-05-30T08:52:30.259Z,5.90
2019-05-30T08:55:00.224Z,8.83
2019-05-30T08:57:30.469Z,5.53
2019-05-30T09:00:00.149Z,2.27
2019-05-30T09:02:29.693Z,4.15
2019-05-30T09:04:59.232Z,5.97
2019-05-30T09:07:31.768Z,3.02
2019-05-30T09:10:01.142Z,4.80
2019-05-30T09:12:30.835Z,6.37
2019-05-30T09:15:00.468Z,4.60
2019-05-30T09:17:30.086Z,7.10
2019-05-30T09:19:59.645Z,4.22
2019-05-30T09:22:29.185Z,3.67
2019-05-30T09:24:58.817Z,7.08
2019-05-30T09:27:28.372Z,4.65
2019-05-30T09:29:57.917Z,4.28
2019-05-30T09:32:27.446Z,5.03
2019-05-30T09:34:57.063Z,4.58
2019-05-30T09:37:26.715Z,5.17
2019-05-30T09:39:56.259Z,4.65
2019-05-30T09:42:25.871Z,7.95
2019-05-30T09:44:55.397Z,5.40
2019-05-30T09:47:24.946Z,5.92
2019-05-30T09:49:54.475Z,4.08
2019-05-30T09:52:24.087Z,5.60
2019-05-30T09:54:53.618Z,3.37
2019-05-30T09:57:23.163Z,4.30
2019-05-30T09:59:52.696Z,5.35
2019-05-30T10:02:22.230Z,5.37
2019-05-30T10:04:52.607Z,3.80
2019-05-30T10:07:22.300Z,4.90
2019-05-30T10:09:53.022Z,6.03
2019-05-30T10:12:22.754Z,4.33
2019-05-30T10:14:52.976Z,5.67
2019-05-30T10:17:22.782Z,3.60
2019-05-30T10:19:53.021Z,5.30
2019-05-30T10:22:22.654Z,3.72
2019-05-30T10:24:53.308Z,3.30
2019-05-30T10:27:23.023Z,3.52
2019-05-30T10:29:53.362Z,4.92
2019-05-30T10:32:23.103Z,6.58
2019-05-30T10:34:53.846Z,4.15
2019-05-30T10:37:23.599Z,2.35
2019-05-30T10:39:57.775Z,2.87
2019-05-30T10:42:24.383Z,5.53
2019-05-30T10:44:54.614Z,3.25
2019-05-30T10:47:24.238Z,5.58
2019-05-30T10:49:53.784Z,2.40
2019-05-30T10:52:23.315Z,4.20
2019-05-30T10:54:53.526Z,3.25
2019-05-30T10:57:23.230Z,3.02
2019-05-30T10:59:52.862Z,2.80
2019-05-30T11:02:22.571Z,4.80
2019-05-30T11:04:53.152Z,3.27
2019-05-30T11:07:31.419Z,3.20
2019-05-30T11:10:26.724Z,4.53
2019-05-30T11:13:04.073Z,4.55
2019-05-30T11:15:39.293Z,7.10
2019-05-30T11:18:08.965Z,2.42
2019-05-30T11:20:38.575Z,3.35
2019-05-30T11:23:08.608Z,2.15
2019-05-30T11:25:38.298Z,2.35
2019-05-30T11:28:08.162Z,2.52
2019-05-30T11:30:37.760Z,3.52
2019-05-30T11:33:08.370Z,2.15
2019-05-30T11:35:37.974Z,1.57
2019-05-30T11:38:08.551Z,2.90
2019-05-30T11:40:38.305Z,6.05
2019-05-30T11:43:07.831Z,2.50
2019-05-30T11:45:37.370Z,3.12
2019-05-30T11:48:06.977Z,2.92
2019-05-30T11:50:36.652Z,3.52
2019-05-30T11:53:06.259Z,2.08
2019-05-30T11:55:35.866Z,4.22
2019-05-30T11:58:05.468Z,5.70
2019-05-30T12:00:35.070Z,3.55
2019-05-30T12:03:05.135Z,2.45
2019-05-30T12:05:34.687Z,3.60
2019-05-30T12:08:04.391Z,3.55
2019-05-30T12:10:34.062Z,2.83
2019-05-30T12:13:03.674Z,4.58
2019-05-30T12:15:33.287Z,4.50
2019-05-30T12:18:02.842Z,2.50
2019-05-30T12:20:32.385Z,2.30
2019-05-30T12:23:02.255Z,3.12
2019-05-30T12:25:32.996Z,2.17
2019-05-30T12:28:04.319Z,3.10
2019-05-30T12:30:33.850Z,1.97
2019-05-30T12:33:03.412Z,2.35
2019-05-30T12:35:33.010Z,1.67
2019-05-30T12:38:05.097Z,1.70
2019-05-30T12:40:33.787Z,1.70
2019-05-30T12:43:05.022Z,8.48
2019-05-30T12:45:34.655Z,2.85
2019-05-30T12:48:04.377Z,1.02
2019-05-30T12:50:33.926Z,1.90
2019-05-30T12:53:03.446Z,2.62
2019-05-30T12:55:32.990Z,3.05
2019-05-30T12:58:02.908Z,0.95
2019-05-30T13:00:35.643Z,2.12
2019-05-30T13:03:05.526Z,1.00
2019-05-30T13:05:35.201Z,1.17
2019-05-30T13:08:17.946Z,2.27
2019-05-30T13:10:36.508Z,4.05
2019-05-30T13:13:06.229Z,1.98
2019-05-30T13:15:35.944Z,2.00
2019-05-30T13:18:05.621Z,1.47
2019-05-30T13:20:35.386Z,2.45
2019-05-30T13:23:05.305Z,4.60
2019-05-30T13:25:34.785Z,1.72
2019-05-30T13:28:07.941Z,2.08
2019-05-30T13:30:35.825Z,2.02
2019-05-30T13:33:06.808Z,2.45
2019-05-30T13:35:36.480Z,1.30
2019-05-30T13:38:07.267Z,1.35
2019-05-30T13:40:37.055Z,1.70
2019-05-30T13:43:07.803Z,2.35
2019-05-30T13:45:38.716Z,2.65
2019-05-30T13:48:08.631Z,1.32
2019-05-30T13:50:38.253Z,0.95
2019-05-30T13:53:09.209Z,1.82
2019-05-30T13:55:38.958Z,3.83
2019-05-30T13:58:09.787Z,1.45
2019-05-30T14:00:40.464Z,1.60
2019-05-30T14:03:10.396Z,4.03
2019-05-30T14:05:40.230Z,6.10
2019-05-30T14:08:15.959Z,1.75
2019-05-30T14:10:41.163Z,3.05
2019-05-30T14:13:12.405Z,3.33
2019-05-30T14:15:41.938Z,2.80
2019-05-30T14:18:11.553Z,1.47
2019-05-30T14:20:41.151Z,2.62
2019-05-30T14:23:11.768Z,1.42
2019-05-30T14:25:41.768Z,3.20
2019-05-30T14:28:12.075Z,2.10
2019-05-30T14:30:42.712Z,1.77
2019-05-30T14:33:12.400Z,1.35
2019-05-30T14:35:41.994Z,1.75
2019-05-30T14:38:12.637Z,3.55
2019-05-30T14:40:42.569Z,9.70
2019-05-30T14:43:13.504Z,2.27
2019-05-30T14:45:43.237Z,1.63
2019-05-30T14:48:12.935Z,1.67
2019-05-30T14:50:42.474Z,1.77
2019-05-30T14:53:13.051Z,1.92
2019-05-30T14:55:42.740Z,3.90
2019-05-30T14:58:13.348Z,3.62
2019-05-30T15:00:43.202Z,1.75
2019-05-30T15:03:15.779Z,3.02
2019-05-30T15:05:43.973Z,1.65
2019-05-30T15:08:13.522Z,4.17
2019-05-30T15:10:43.061Z,2.27
2019-05-30T15:13:13.664Z,2.33
2019-05-30T15:15:43.447Z,1.67
2019-05-30T15:18:13.674Z,1.57
2019-05-30T15:20:43.233Z,2.50
2019-05-30T15:23:13.797Z,1.80
2019-05-30T15:25:43.489Z,2.65
2019-05-30T15:28:14.148Z,1.40
2019-05-30T15:30:43.800Z,1.17
2019-05-30T15:33:14.425Z,1.77
2019-05-30T15:35:44.275Z,2.65
2019-05-30T15:38:15.010Z,2.45
2019-05-30T15:40:44.688Z,1.67
2019-05-30T15:43:15.559Z,4.85
2019-05-30T15:45:45.133Z,2.65
2019-05-30T15:48:14.677Z,1.67
2019-05-30T15:50:44.296Z,1.65
2019-05-30T15:53:14.875Z,1.42
2019-05-30T15:55:44.675Z,1.82
2019-05-30T15:58:15.624Z,1.92
2019-05-30T16:00:45.422Z,1.30
2019-05-30T16:03:16.405Z,5.47
2019-05-30T16:05:46.269Z,1.43
2019-05-30T16:08:16.754Z,1.32
2019-05-30T16:10:46.471Z,2.27
2019-05-30T16:13:16.006Z,3.08
2019-05-30T16:15:45.982Z,1.30
2019-05-30T16:18:15.731Z,1.77
2019-05-30T16:20:45.247Z,1.60
2019-05-30T16:23:14.874Z,1.60
2019-05-30T16:25:44.552Z,2.27
2019-05-30T16:28:14.121Z,2.65
2019-05-30T16:30:43.651Z,2.00
2019-05-30T16:33:13.929Z,4.15
2019-05-30T16:35:44.959Z,1.10
2019-05-30T16:38:14.500Z,2.67
2019-05-30T16:40:45.639Z,2.37
2019-05-30T16:43:16.219Z,1.10
2019-05-30T16:45:45.847Z,3.12
2019-05-30T16:48:16.306Z,1.12
2019-05-30T16:50:46.097Z,2.27
2019-05-30T16:53:16.987Z,5.97
2019-05-30T16:55:46.863Z,0.60
2019-05-30T16:58:17.700Z,0.65
2019-05-30T17:00:47.416Z,3.10
2019-05-30T17:03:17.756Z,0.80
2019-05-30T17:05:47.471Z,0.75
2019-05-30T17:08:18.063Z,1.00
2019-05-30T17:10:47.679Z,0.60
2019-05-30T17:13:19.540Z,0.90
2019-05-30T17:18:18.001Z,0.72
2019-05-30T17:20:48.268Z,2.45
2019-05-30T17:23:18.683Z,5.70
2019-05-30T17:25:48.408Z,0.45
2019-05-30T17:28:18.151Z,0.65
2019-05-30T17:30:48.762Z,0.90
2019-05-30T17:33:21.538Z,2.92
2019-05-30T17:35:49.575Z,2.37
2019-05-30T17:38:20.419Z,1.52
2019-05-30T17:40:50.158Z,2.87
2019-05-30T17:43:20.907Z,1.02
2019-05-30T17:45:50.964Z,1.77
2019-05-30T17:48:21.476Z,2.10
2019-05-30T17:50:53.076Z,5.95
2019-05-30T17:53:23.877Z,0.68
2019-05-30T17:55:53.627Z,0.50
2019-05-30T17:58:23.920Z,1.12
2019-05-30T18:00:56.880Z,4.70
2019-05-30T18:03:24.813Z,1.05
2019-05-30T18:05:54.345Z,2.47
2019-05-30T18:08:24.803Z,3.83
2019-05-30T18:10:54.507Z,0.68
2019-05-30T18:13:25.043Z,2.12
2019-05-30T18:15:54.662Z,2.05
2019-05-30T18:18:25.344Z,4.03
2019-05-30T18:20:55.119Z,1.55
2019-05-30T18:23:25.521Z,1.90
2019-05-30T18:25:55.123Z,2.52
2019-05-30T18:28:25.689Z,1.00
2019-05-30T18:30:55.405Z,8.23
2019-05-30T18:33:26.038Z,1.60
2019-05-30T18:35:56.135Z,0.53
2019-05-30T18:38:26.355Z,0.40
2019-05-30T18:41:10.408Z,0.45
2019-05-30T18:43:27.363Z,1.77
2019-05-30T18:45:56.964Z,1.17
2019-05-30T18:48:27.241Z,2.12
2019-05-30T18:50:56.987Z,3.65
2019-05-30T18:53:26.553Z,2.77
2019-05-30T18:55:56.172Z,1.25
2019-05-30T18:58:26.702Z,1.30
2019-05-30T19:00:56.409Z,0.80
2019-05-30T19:03:26.500Z,0.68
2019-05-30T19:05:56.050Z,1.55
2019-05-30T19:08:25.781Z,2.30
2019-05-30T19:10:55.365Z,0.50
2019-05-30T19:13:24.955Z,2.33
2019-05-30T19:15:54.510Z,5.28
2019-05-30T19:18:25.266Z,1.60
2019-05-30T19:20:55.001Z,0.40
2019-05-30T19:23:25.890Z,0.98
2019-05-30T19:25:57.020Z,1.25
2019-05-30T19:28:26.630Z,3.00
2019-05-30T19:30:57.344Z,0.72
2019-05-30T19:33:26.879Z,1.90
2019-05-30T19:35:56.505Z,0.60
2019-05-30T19:38:27.204Z,3.70
2019-05-30T19:40:56.854Z,1.85
2019-05-30T19:43:27.528Z,1.70
2019-05-30T19:45:57.200Z,0.78
2019-05-30T19:48:28.284Z,2.17
2019-05-30T19:50:59.513Z,2.60
2019-05-30T19:53:30.809Z,1.42
2019-05-30T19:56:00.470Z,1.25
2019-05-30T19:58:31.436Z,1.62
2019-05-30T20:01:01.218Z,1.57
2019-05-30T20:03:38.485Z,0.60
2019-05-30T20:06:02.074Z,1.83
2019-05-30T20:08:46.916Z,1.32
2019-05-30T20:11:02.908Z,1.97
2019-05-30T20:13:33.096Z,1.25
2019-05-30T20:16:02.794Z,0.60
2019-05-30T20:18:33.334Z,1.25
2019-05-30T20:21:03.116Z,1.32
2019-05-30T20:23:45.961Z,3.92
2019-05-30T20:26:04.076Z,3.70
2019-05-30T20:28:34.824Z,3.65
2019-05-30T20:31:04.578Z,3.22
2019-05-30T20:33:36.464Z,2.30
2019-05-30T20:36:06.244Z,0.90
2019-05-30T20:38:36.510Z,0.47
2019-05-30T20:41:06.307Z,0.85
2019-05-30T20:43:36.888Z,3.52
2019-05-30T20:46:22.093Z,0.50
2019-05-30T20:48:40.710Z,5.17
2019-05-30T20:51:20.803Z,0.70
2019-05-30T20:53:41.252Z,0.60
2019-05-30T20:56:10.966Z,1.07
2019-05-30T20:58:41.715Z,0.78
2019-05-30T21:01:11.455Z,2.20
2019-05-30T21:03:41.801Z,2.60
2019-05-30T21:06:12.417Z,1.87
2019-05-30T21:08:43.146Z,0.78
2019-05-30T21:11:13.059Z,1.07
2019-05-30T21:13:44.118Z,2.33
2019-05-30T21:16:15.623Z,0.78
2019-05-30T21:18:46.339Z,1.27
2019-05-30T21:21:15.975Z,0.50
2019-05-30T21:23:46.546Z,1.52
2019-05-30T21:26:16.328Z,0.90
2019-05-30T21:28:45.938Z,0.90
2019-05-30T21:31:15.464Z,0.90
2019-05-30T21:33:46.050Z,2.98
2019-05-30T21:36:15.909Z,2.05
2019-05-30T21:38:46.110Z,1.00
2019-05-30T21:41:15.699Z,1.05
2019-05-30T21:43:45.240Z,0.50
2019-05-30T21:46:14.782Z,0.93
2019-05-30T21:48:44.932Z,0.88
2019-05-30T21:51:14.771Z,0.60
2019-05-30T21:53:45.571Z,0.50
2019-05-30T21:56:15.278Z,0.47
2019-05-30T21:58:46.261Z,1.67
2019-05-30T22:01:23.176Z,0.68
2019-05-30T22:03:52.858Z,1.65
2019-05-30T22:06:22.462Z,1.47
2019-05-30T22:08:52.038Z,1.35
2019-05-30T22:11:32.487Z,2.22
2019-05-30T22:14:02.045Z,0.33
2019-05-30T22:16:31.582Z,2.02
2019-05-30T22:19:01.118Z,0.62
2019-05-30T22:21:30.791Z,3.72
2019-05-30T22:24:00.400Z,1.00
2019-05-30T22:26:30.005Z,3.52
2019-05-30T22:28:59.611Z,3.52
2019-05-30T22:31:29.283Z,4.20
2019-05-30T22:33:58.822Z,3.15
2019-05-30T22:36:29.397Z,0.40
2019-05-30T22:38:58.987Z,0.55
2019-05-30T22:41:28.490Z,3.58
2019-05-30T22:43:58.038Z,1.45
2019-05-30T22:46:27.587Z,2.67
2019-05-30T22:48:57.107Z,0.65
2019-05-30T22:51:27.623Z,0.88
2019-05-30T22:53:57.463Z,0.60
2019-05-30T22:56:27.003Z,3.08
2019-05-30T22:58:56.521Z,0.85
2019-05-30T23:01:26.066Z,2.72
2019-05-30T23:03:55.601Z,1.30
2019-05-30T23:06:25.143Z,0.88
2019-05-30T23:08:54.965Z,1.55
2019-05-30T23:11:25.502Z,0.65
2019-05-30T23:13:56.136Z,4.40
2019-05-30T23:16:26.037Z,0.95
2019-05-30T23:18:56.744Z,1.87
2019-05-30T23:21:26.473Z,1.65
2019-05-30T23:23:57.247Z,1.12
2019-05-30T23:26:26.924Z,1.45
2019-05-30T23:28:58.081Z,1.70
2019-05-30T23:31:28.190Z,0.83
2019-05-30T23:33:58.650Z,2.60
2019-05-30T23:36:28.339Z,2.55
2019-05-30T23:38:58.881Z,3.65
2019-05-30T23:41:28.516Z,3.35
2019-05-30T23:44:10.538Z,1.27
2019-05-30T23:46:29.215Z,2.27
2019-05-30T23:48:59.639Z,1.95
2019-05-30T23:51:29.495Z,1.37
2019-05-30T23:54:00.409Z,0.95
2019-05-30T23:56:30.067Z,1.37
2019-05-30T23:59:01.148Z,2.55
